createdAt,value
2023-04-24T10:03:33.215Z,25.67
2023-04-24T10:06:00.559Z,25.44
2023-04-24T10:08:25.168Z,24.00
2023-04-24T10:10:48.924Z,23.19
2023-04-24T10:13:15.453Z,22.41
2023-04-24T10:15:39.285Z,22.01
2023-04-24T10:18:05.783Z,21.84
2023-04-24T10:20:31.075Z,21.46
2023-04-24T10:22:55.303Z,21.27
2023-04-24T10:25:21.511Z,21.13
2023-04-24T10:27:46.340Z,20.81
2023-04-24T10:30:13.967Z,20.79
2023-04-24T10:32:38.041Z,20.08
2023-04-24T10:35:01.664Z,20.03
2023-04-24T10:37:27.131Z,19.80
2023-04-24T10:39:52.113Z,19.57
2023-04-24T10:42:16.674Z,19.88
2023-04-24T10:44:41.883Z,20.27
2023-04-24T10:47:05.922Z,19.65
2023-04-24T10:49:32.956Z,19.78
2023-04-24T10:52:02.364Z,20.27
2023-04-24T10:54:28.028Z,20.68
2023-04-24T10:56:52.615Z,21.31
2023-04-24T10:59:25.782Z,21.45
2023-04-24T11:01:54.960Z,22.03
2023-04-24T11:04:31.727Z,21.32
2023-04-24T11:06:55.925Z,21.20
2023-04-24T11:09:22.339Z,20.99
2023-04-24T11:11:47.816Z,21.06
2023-04-24T11:14:12.124Z,21.28
2023-04-24T11:16:39.647Z,21.80
2023-04-24T11:19:05.668Z,22.23
2023-04-24T11:21:32.288Z,22.94
2023-04-24T11:23:56.238Z,22.93
2023-04-24T11:26:23.500Z,22.78
2023-04-24T11:28:48.935Z,22.57
2023-04-24T11:31:37.592Z,21.92
2023-04-24T11:34:08.408Z,22.01
2023-04-24T11:36:33.178Z,22.68
2023-04-24T11:38:57.446Z,23.13
2023-04-24T11:41:22.760Z,23.45
2023-04-24T11:43:47.080Z,23.85
2023-04-24T11:46:11.343Z,24.25
2023-04-24T11:48:40.424Z,24.55
2023-04-24T11:51:04.224Z,24.96
2023-04-24T11:53:27.793Z,25.08
2023-04-24T11:55:51.480Z,25.22
2023-04-24T11:58:14.927Z,25.61
2023-04-24T12:00:38.734Z,25.66
2023-04-24T12:03:07.719Z,25.40
2023-04-24T12:05:31.908Z,25.50
2023-04-24T12:07:55.814Z,25.39
2023-04-24T12:10:23.465Z,25.52
2023-04-24T12:12:47.186Z,25.25
2023-04-24T12:15:12.824Z,25.01
2023-04-24T12:17:37.408Z,24.96
2023-04-24T12:20:02.832Z,25.62
2023-04-24T12:22:26.276Z,26.11
2023-04-24T12:25:03.518Z,26.42
2023-04-24T12:27:32.695Z,26.65
2023-04-24T12:29:57.836Z,26.77
2023-04-24T12:32:21.917Z,26.44
2023-04-24T12:34:45.390Z,26.29
2023-04-24T12:37:12.459Z,26.50
2023-04-24T12:39:36.098Z,24.43
2023-04-24T12:42:01.809Z,23.66
2023-04-24T12:44:32.266Z,23.94
2023-04-24T12:46:55.861Z,24.17
2023-04-24T12:49:19.340Z,25.14
2023-04-24T12:51:42.713Z,27.93
2023-04-24T12:54:06.750Z,28.92
2023-04-24T12:56:31.079Z,29.44
2023-04-24T12:58:54.473Z,30.14
2023-04-24T13:01:18.538Z,30.90
2023-04-24T13:03:43.058Z,31.49
2023-04-24T13:06:07.065Z,32.22
2023-04-24T13:08:31.135Z,32.31
2023-04-24T13:10:54.568Z,32.79
2023-04-24T13:13:18.041Z,32.92
2023-04-24T13:15:41.907Z,33.30
2023-04-24T13:18:05.817Z,33.65
2023-04-24T13:20:29.424Z,33.82
2023-04-24T13:22:53.137Z,34.05
2023-04-24T13:25:17.421Z,34.19
2023-04-24T13:27:40.841Z,34.45
2023-04-24T13:30:06.196Z,33.98
2023-04-24T13:32:29.979Z,34.11
2023-04-24T13:34:53.626Z,33.89
2023-04-24T13:37:17.271Z,33.83
2023-04-24T13:39:41.649Z,33.13
2023-04-24T13:42:05.448Z,32.67
2023-04-24T13:44:28.937Z,32.36
2023-04-24T13:46:54.651Z,32.25
2023-04-24T13:49:18.356Z,32.12
2023-04-24T13:51:43.148Z,32.05
2023-04-24T13:54:06.680Z,31.56
2023-04-24T13:56:30.142Z,31.63
2023-04-24T13:58:55.586Z,31.33
2023-04-24T14:01:19.245Z,30.95
2023-04-24T14:03:44.173Z,30.92
2023-04-24T14:06:09.206Z,30.52
2023-04-24T14:08:32.548Z,30.57
2023-04-24T14:10:56.034Z,30.39
2023-04-24T14:13:20.440Z,30.63
2023-04-24T14:15:43.975Z,30.65
2023-04-24T14:18:07.486Z,30.72
2023-04-24T14:20:31.626Z,29.97
2023-04-24T14:22:55.082Z,30.18
2023-04-24T14:25:18.555Z,30.32
2023-04-24T14:27:42.357Z,30.49
2023-04-24T14:30:08.879Z,30.73
2023-04-24T14:32:32.371Z,30.62
2023-04-24T14:34:56.010Z,30.61
2023-04-24T14:37:19.598Z,30.66
2023-04-24T14:39:44.484Z,30.79
2023-04-24T14:42:11.591Z,30.76
2023-04-24T14:44:34.941Z,30.82
2023-04-24T14:46:59.072Z,30.71
2023-04-24T14:49:23.892Z,30.34
2023-04-24T14:51:47.586Z,30.19
2023-04-24T14:54:15.249Z,30.12
2023-04-24T14:56:41.389Z,30.01
2023-04-24T14:59:05.386Z,29.82
2023-04-24T15:01:28.839Z,29.75
2023-04-24T15:03:53.227Z,29.46
2023-04-24T15:06:16.977Z,29.32
2023-04-24T15:08:40.422Z,28.88
2023-04-24T15:11:04.937Z,29.12
2023-04-24T15:13:28.345Z,28.78
2023-04-24T15:15:52.055Z,28.60
2023-04-24T15:18:16.119Z,28.60
2023-04-24T15:20:39.954Z,28.55
2023-04-24T15:23:03.527Z,28.47
2023-04-24T15:25:27.243Z,28.60
2023-04-24T15:27:50.848Z,28.54
2023-04-24T15:30:15.059Z,28.07
2023-04-24T15:32:38.951Z,27.93
2023-04-24T15:35:08.466Z,27.76
2023-04-24T15:37:33.082Z,27.62
2023-04-24T15:39:57.014Z,27.91
2023-04-24T15:42:20.456Z,27.66
2023-04-24T15:44:45.529Z,27.62
2023-04-24T15:47:09.884Z,27.50
2023-04-24T15:49:33.582Z,27.36
2023-04-24T15:51:57.105Z,27.16
2023-04-24T15:54:21.112Z,27.42
2023-04-24T15:56:45.138Z,27.75
2023-04-24T15:59:08.754Z,27.84
2023-04-24T16:01:33.373Z,27.34
2023-04-24T16:03:57.298Z,27.57
2023-04-24T16:06:20.801Z,27.02
2023-04-24T16:08:44.602Z,27.13
2023-04-24T16:11:07.965Z,27.24
2023-04-24T16:13:33.705Z,27.58
2023-04-24T16:15:57.808Z,27.63
2023-04-24T16:18:21.855Z,27.73
2023-04-24T16:20:45.838Z,27.70
2023-04-24T16:23:10.024Z,27.73
2023-04-24T16:25:33.693Z,27.62
2023-04-24T16:27:57.197Z,27.65
2023-04-24T16:30:20.722Z,27.44
2023-04-24T16:32:44.206Z,27.51
2023-04-24T16:35:08.690Z,27.52
2023-04-24T16:37:32.583Z,27.76
2023-04-24T16:39:56.273Z,27.82
2023-04-24T16:42:19.715Z,27.76
2023-04-24T16:44:44.283Z,27.99
2023-04-24T16:47:07.948Z,28.08
2023-04-24T16:49:32.145Z,28.26
2023-04-24T16:51:56.736Z,28.48
2023-04-24T16:54:20.170Z,28.73
2023-04-24T16:56:44.562Z,28.84
2023-04-24T16:59:08.576Z,28.88
2023-04-24T17:01:32.008Z,29.17
2023-04-24T17:03:56.348Z,29.22
2023-04-24T17:06:20.726Z,29.61
2023-04-24T17:08:44.089Z,29.81
2023-04-24T17:11:07.484Z,29.89
2023-04-24T17:13:33.163Z,30.06
2023-04-24T17:15:56.754Z,30.14
2023-04-24T17:18:20.156Z,30.24
2023-04-24T17:20:43.782Z,30.47
2023-04-24T17:23:11.206Z,30.49
2023-04-24T17:25:34.538Z,30.84
2023-04-24T17:27:59.549Z,31.16
2023-04-24T17:30:23.527Z,31.26
2023-04-24T17:32:47.087Z,31.45
2023-04-24T17:35:11.906Z,31.70
2023-04-24T17:37:35.587Z,31.72
2023-04-24T17:39:59.067Z,31.96
2023-04-24T17:42:23.440Z,32.08
2023-04-24T17:44:47.079Z,32.20
2023-04-24T17:47:10.649Z,32.16
2023-04-24T17:49:34.814Z,32.38
2023-04-24T17:51:58.265Z,32.35
2023-04-24T17:54:21.808Z,32.49
2023-04-24T17:56:46.425Z,32.50
2023-04-24T17:59:09.885Z,32.70
2023-04-24T18:01:33.396Z,32.77
2023-04-24T18:03:57.428Z,32.86
2023-04-24T18:06:21.264Z,32.90
2023-04-24T18:08:44.783Z,32.98
2023-04-24T18:11:10.095Z,33.11
2023-04-24T18:13:33.866Z,33.21
2023-04-24T18:15:57.382Z,33.24
2023-04-24T18:18:22.530Z,33.41
2023-04-24T18:20:46.420Z,33.40
2023-04-24T18:23:10.290Z,33.39
2023-04-24T18:25:34.677Z,33.30
2023-04-24T18:27:58.227Z,33.23
2023-04-24T18:30:23.441Z,33.25
2023-04-24T18:32:49.392Z,33.09
2023-04-24T18:35:12.916Z,33.24
2023-04-24T18:37:36.371Z,33.21
2023-04-24T18:40:01.024Z,33.15
2023-04-24T18:42:24.687Z,33.17
2023-04-24T18:44:49.167Z,33.27
2023-04-24T18:47:13.634Z,33.24
2023-04-24T18:49:38.530Z,33.34
2023-04-24T18:52:02.144Z,33.37
2023-04-24T18:54:26.881Z,33.43
2023-04-24T18:56:50.878Z,33.43
2023-04-24T18:59:14.400Z,33.44
2023-04-24T19:01:39.193Z,33.41
2023-04-24T19:04:03.485Z,33.40
2023-04-24T19:06:26.928Z,33.36
2023-04-24T19:08:52.087Z,33.26
2023-04-24T19:11:15.570Z,33.20
2023-04-24T19:13:38.970Z,33.10
2023-04-24T19:16:03.008Z,33.06
2023-04-24T19:18:28.674Z,33.03
2023-04-24T19:20:52.334Z,33.09
2023-04-24T19:23:16.002Z,33.13
2023-04-24T19:25:39.420Z,33.23
2023-04-24T19:28:02.984Z,33.41
2023-04-24T19:30:26.827Z,33.46
2023-04-24T19:32:50.241Z,33.77
2023-04-24T19:35:13.711Z,33.96
2023-04-24T19:37:39.798Z,34.18
2023-04-24T19:40:03.651Z,34.38
2023-04-24T19:42:41.889Z,34.45
2023-04-24T19:45:16.186Z,34.59
2023-04-24T19:47:39.897Z,34.71
2023-04-24T19:50:03.880Z,34.85
2023-04-24T19:52:28.339Z,34.98
2023-04-24T19:54:52.026Z,35.25
2023-04-24T19:57:15.623Z,35.40
2023-04-24T19:59:40.837Z,35.99
2023-04-24T20:02:04.335Z,37.16
2023-04-24T20:04:28.046Z,37.95
2023-04-24T20:06:52.628Z,38.55
2023-04-24T20:09:15.993Z,39.22
2023-04-24T20:11:39.982Z,39.55
2023-04-24T20:14:03.858Z,40.08
2023-04-24T20:16:27.649Z,40.93
2023-04-24T20:18:51.423Z,41.55
2023-04-24T20:21:15.333Z,42.46
2023-04-24T20:23:38.806Z,42.94
2023-04-24T20:26:04.236Z,43.43
2023-04-24T20:28:29.468Z,43.76
2023-04-24T20:30:55.609Z,44.32
2023-04-24T20:33:19.240Z,44.78
2023-04-24T20:35:44.906Z,45.45
2023-04-24T20:38:10.344Z,45.95
2023-04-24T20:40:34.853Z,46.19
2023-04-24T20:42:59.834Z,46.78
2023-04-24T20:45:23.575Z,47.10
2023-04-24T20:47:49.989Z,47.39
2023-04-24T20:50:15.950Z,47.75
2023-04-24T20:52:39.424Z,48.09
2023-04-24T20:55:03.804Z,48.18
2023-04-24T20:57:29.607Z,49.03
2023-04-24T20:59:53.495Z,49.00
2023-04-24T21:02:17.127Z,49.31
2023-04-24T21:04:41.785Z,49.30
2023-04-24T21:07:05.565Z,49.52
2023-04-24T21:09:29.082Z,49.77
2023-04-24T21:11:53.145Z,49.92
2023-04-24T21:14:16.532Z,50.24
2023-04-24T21:16:40.245Z,50.54
2023-04-24T21:19:05.512Z,50.49
2023-04-24T21:21:29.076Z,50.69
2023-04-24T21:23:52.479Z,50.81
2023-04-24T21:26:16.677Z,50.95
2023-04-24T21:28:40.174Z,51.06
2023-04-24T21:31:03.777Z,51.35
2023-04-24T21:33:28.860Z,51.65
2023-04-24T21:36:06.268Z,51.73
2023-04-24T21:38:30.419Z,52.02
2023-04-24T21:40:53.968Z,52.11
2023-04-24T21:43:17.869Z,52.19
2023-04-24T21:45:41.872Z,52.66
2023-04-24T21:48:05.961Z,52.75
2023-04-24T21:50:29.951Z,53.01
2023-04-24T21:52:54.870Z,53.05
2023-04-24T21:55:20.664Z,53.32
2023-04-24T21:57:44.967Z,53.28
2023-04-24T22:00:12.504Z,53.49
2023-04-24T22:02:36.423Z,53.56
2023-04-24T22:05:02.650Z,53.70
2023-04-24T22:07:26.335Z,54.01
2023-04-24T22:09:50.015Z,54.12
2023-04-24T22:12:13.499Z,54.00
2023-04-24T22:14:36.947Z,54.21
2023-04-24T22:17:00.344Z,54.46
2023-04-24T22:19:25.535Z,54.45
2023-04-24T22:21:49.848Z,54.57
2023-04-24T22:24:18.719Z,54.69
2023-04-24T22:26:42.308Z,54.95
2023-04-24T22:29:06.018Z,55.09
2023-04-24T22:31:29.726Z,55.39
2023-04-24T22:33:53.431Z,55.44
2023-04-24T22:36:19.967Z,55.57
2023-04-24T22:38:43.742Z,55.99
2023-04-24T22:41:07.590Z,56.00
2023-04-24T22:43:31.556Z,56.10
2023-04-24T22:45:55.046Z,56.23
2023-04-24T22:48:18.513Z,56.45
2023-04-24T22:50:42.390Z,56.72
2023-04-24T22:53:06.496Z,56.79
2023-04-24T22:55:30.952Z,56.98
2023-04-24T22:57:56.874Z,57.47
2023-04-24T23:00:20.376Z,57.39
2023-04-24T23:02:44.339Z,57.60
2023-04-24T23:05:10.195Z,57.94
2023-04-24T23:07:34.107Z,58.19
2023-04-24T23:09:57.777Z,58.36
2023-04-24T23:12:21.243Z,58.51
2023-04-24T23:14:44.705Z,58.62
2023-04-24T23:17:08.374Z,58.93
2023-04-24T23:19:33.372Z,59.32
2023-04-24T23:21:56.963Z,59.42
2023-04-24T23:24:20.505Z,59.63
2023-04-24T23:26:43.969Z,59.79
2023-04-24T23:29:07.845Z,60.08
2023-04-24T23:31:31.645Z,60.35
2023-04-24T23:33:59.519Z,60.49
2023-04-24T23:36:22.958Z,60.92
2023-04-24T23:38:50.246Z,61.01
2023-04-24T23:41:14.382Z,61.12
2023-04-24T23:43:38.456Z,61.41
2023-04-24T23:46:02.690Z,61.63
2023-04-24T23:48:26.066Z,61.77
2023-04-24T23:50:49.668Z,61.95
2023-04-24T23:53:13.097Z,61.99
2023-04-24T23:55:36.927Z,62.13
2023-04-24T23:58:00.470Z,62.45
